createdAt,value
2023-01-26T00:00:55.601Z,95958.06
2023-01-26T00:03:25.081Z,95946.84
2023-01-26T00:05:54.637Z,95949.09
2023-01-26T00:08:24.056Z,95943.16
2023-01-26T00:10:56.637Z,95943.34
2023-01-26T00:13:26.027Z,95930.16
2023-01-26T00:15:55.401Z,95924.88
2023-01-26T00:18:24.856Z,95929.16
2023-01-26T00:20:57.916Z,95930.97
2023-01-26T00:23:29.260Z,95928.97
2023-01-26T00:26:00.462Z,95925.31
2023-01-26T00:28:30.397Z,95923.69
2023-01-26T00:31:05.090Z,95919.03
2023-01-26T00:33:34.784Z,95919.66
2023-01-26T00:36:06.010Z,95918.00
2023-01-26T00:38:35.634Z,95919.03
2023-01-26T00:41:07.135Z,95922.69
2023-01-26T00:43:36.538Z,95914.13
2023-01-26T00:46:06.270Z,95915.94
2023-01-26T00:48:38.069Z,95909.22
2023-01-26T00:51:09.489Z,95916.88
2023-01-26T00:53:38.874Z,95913.41
2023-01-26T00:56:10.255Z,95911.16
2023-01-26T00:58:40.484Z,95909.69
2023-01-26T01:01:09.984Z,95903.59
2023-01-26T01:03:39.499Z,95905.22
2023-01-26T01:06:08.947Z,95906.22
2023-01-26T01:08:38.357Z,95904.59
2023-01-26T01:11:12.965Z,95905.59
2023-01-26T01:13:42.937Z,95906.59
2023-01-26T01:16:16.749Z,95906.88
2023-01-26T01:18:46.446Z,95912.16
2023-01-26T01:21:18.557Z,95904.22
2023-01-26T01:23:48.950Z,95905.22
2023-01-26T01:26:19.855Z,95900.78
2023-01-26T01:28:49.414Z,95903.78
2023-01-26T01:31:18.849Z,95900.50
2023-01-26T01:33:48.263Z,95905.59
2023-01-26T01:36:18.706Z,95904.59
2023-01-26T01:38:49.332Z,95897.88
2023-01-26T01:41:23.722Z,95902.31
2023-01-26T01:44:18.900Z,95894.22
2023-01-26T01:46:54.991Z,95903.97
2023-01-26T01:49:30.379Z,95886.69
2023-01-26T01:52:07.697Z,95883.22
2023-01-26T01:54:44.120Z,95894.41
2023-01-26T01:57:27.578Z,95896.03
2023-01-26T02:00:06.175Z,95896.03
2023-01-26T02:02:44.921Z,95889.13
2023-01-26T02:05:26.841Z,95895.84
2023-01-26T02:07:56.245Z,95886.94
2023-01-26T02:10:27.209Z,95886.31
2023-01-26T02:13:00.646Z,95883.22
2023-01-26T02:15:39.487Z,95882.22
2023-01-26T02:18:11.395Z,95880.16
2023-01-26T02:20:48.688Z,95875.88
2023-01-26T02:23:35.839Z,95861.88
2023-01-26T02:26:16.646Z,95870.16
2023-01-26T02:28:48.956Z,95860.41
2023-01-26T02:31:20.020Z,95857.59
2023-01-26T02:33:51.273Z,95850.69
2023-01-26T02:36:24.487Z,95851.31
2023-01-26T02:39:11.115Z,95848.69
2023-01-26T02:42:00.608Z,95840.34
2023-01-26T02:44:31.557Z,95832.84
2023-01-26T02:47:01.350Z,95827.38
2023-01-26T02:49:48.446Z,95829.94
2023-01-26T02:52:22.473Z,95825.50
2023-01-26T02:55:16.139Z,95826.50
2023-01-26T02:57:48.306Z,95820.41
2023-01-26T03:00:20.441Z,95815.31
2023-01-26T03:02:54.091Z,95811.84
2023-01-26T03:05:23.584Z,95813.66
2023-01-26T03:07:53.920Z,95814.31
2023-01-26T03:10:26.970Z,95807.19
2023-01-26T03:12:57.741Z,95806.19
2023-01-26T03:15:43.531Z,95801.28
2023-01-26T03:18:34.979Z,95797.03
2023-01-26T03:21:25.792Z,95799.28
2023-01-26T03:24:12.802Z,95798.22
2023-01-26T03:27:08.758Z,95795.94
2023-01-26T03:29:40.492Z,95798.56
2023-01-26T03:32:10.058Z,95793.31
2023-01-26T03:34:40.877Z,95804.66
2023-01-26T03:37:10.546Z,95805.50
2023-01-26T03:40:08.808Z,95798.41
2023-01-26T03:42:57.200Z,95805.31
2023-01-26T03:45:45.522Z,95804.94
2023-01-26T03:48:32.451Z,95796.00
2023-01-26T03:51:21.682Z,95809.03
2023-01-26T03:54:08.842Z,95800.91
2023-01-26T03:56:38.439Z,95796.66
2023-01-26T03:59:15.668Z,95799.09
2023-01-26T04:02:06.750Z,95795.47
2023-01-26T04:04:55.514Z,95798.91
2023-01-26T04:07:46.571Z,95793.63
2023-01-26T04:10:17.122Z,95795.09
2023-01-26T04:13:00.439Z,95789.41
2023-01-26T04:15:48.044Z,95786.22
2023-01-26T04:18:36.557Z,95775.81
2023-01-26T04:21:25.164Z,95775.97
2023-01-26T04:23:57.214Z,95781.25
2023-01-26T04:26:34.733Z,95782.09
2023-01-26T04:29:08.091Z,95772.34
2023-01-26T04:31:38.280Z,95767.88
2023-01-26T04:34:14.146Z,95772.34
2023-01-26T04:36:45.915Z,95773.16
2023-01-26T04:39:17.534Z,95765.88
2023-01-26T04:41:50.772Z,95768.50
2023-01-26T04:44:22.110Z,95767.69
2023-01-26T04:46:51.965Z,95767.69
2023-01-26T04:49:25.180Z,95772.16
2023-01-26T04:51:55.029Z,95774.97
2023-01-26T04:54:25.341Z,95774.16
2023-01-26T04:56:55.272Z,95774.34
2023-01-26T04:59:24.937Z,95774.34
2023-01-26T05:01:58.735Z,95779.63
2023-01-26T05:04:30.288Z,95778.19
2023-01-26T05:06:59.929Z,95777.34
2023-01-26T05:09:30.197Z,95778.81
2023-01-26T05:12:34.813Z,95783.28
2023-01-26T05:15:22.500Z,95785.53
2023-01-26T05:18:15.123Z,95777.00
2023-01-26T05:21:04.024Z,95778.63
2023-01-26T05:23:41.636Z,95785.72
2023-01-26T05:26:29.743Z,95778.63
2023-01-26T05:29:03.159Z,95782.25
2023-01-26T05:31:32.689Z,95779.19
2023-01-26T05:34:02.098Z,95784.00
2023-01-26T05:36:33.475Z,95782.56
2023-01-26T05:39:03.019Z,95782.75
2023-01-26T05:41:33.400Z,95786.22
2023-01-26T05:44:21.118Z,95786.03
2023-01-26T05:46:54.794Z,95777.66
2023-01-26T05:49:24.598Z,95778.66
2023-01-26T05:51:56.471Z,95780.28
2023-01-26T05:54:27.077Z,95783.75
2023-01-26T05:56:57.834Z,95780.13
2023-01-26T05:59:29.067Z,95779.28
2023-01-26T06:01:58.680Z,95777.28
2023-01-26T06:04:29.155Z,95785.00
2023-01-26T06:07:02.767Z,95778.56
2023-01-26T06:09:38.128Z,95778.38
2023-01-26T06:12:17.663Z,95785.47
2023-01-26T06:14:59.389Z,95782.44
2023-01-26T06:17:37.660Z,95780.63
2023-01-26T06:20:12.612Z,95782.25
2023-01-26T06:22:43.728Z,95783.47
2023-01-26T06:25:13.231Z,95784.28
2023-01-26T06:27:42.799Z,95787.91
2023-01-26T06:30:28.872Z,95790.56
2023-01-26T06:33:03.208Z,95781.19
2023-01-26T06:35:37.155Z,95794.38
2023-01-26T06:38:10.383Z,95786.47
2023-01-26T06:40:39.890Z,95781.19
2023-01-26T06:43:09.283Z,95781.19
2023-01-26T06:45:39.046Z,95781.38
2023-01-26T06:48:08.474Z,95776.47
2023-01-26T06:50:38.110Z,95785.38
2023-01-26T06:53:30.873Z,95778.28
2023-01-26T06:56:18.770Z,95769.56
2023-01-26T06:59:11.581Z,95773.84
2023-01-26T07:02:00.321Z,95782.38
2023-01-26T07:04:29.714Z,95781.19
2023-01-26T07:06:59.222Z,95777.53
2023-01-26T07:09:30.673Z,95776.72
2023-01-26T07:12:00.119Z,95778.56
2023-01-26T07:14:29.553Z,95780.19
2023-01-26T07:16:59.015Z,95774.72
2023-01-26T07:19:30.338Z,95780.81
2023-01-26T07:21:59.838Z,95773.91
2023-01-26T07:24:31.128Z,95778.38
2023-01-26T07:27:00.554Z,95777.34
2023-01-26T07:29:29.923Z,95768.63
2023-01-26T07:31:59.378Z,95778.38
2023-01-26T07:34:28.829Z,95770.63
2023-01-26T07:36:58.372Z,95769.19
2023-01-26T07:39:27.877Z,95762.53
2023-01-26T07:41:58.710Z,95772.19
2023-01-26T07:44:48.862Z,95771.75
2023-01-26T07:47:20.028Z,95773.38
2023-01-26T07:49:49.403Z,95770.75
2023-01-26T07:52:19.009Z,95762.00
2023-01-26T07:54:48.404Z,95759.38
2023-01-26T07:57:19.169Z,95759.38
2023-01-26T07:59:48.632Z,95753.72
2023-01-26T08:02:18.123Z,95757.94
2023-01-26T08:04:47.670Z,95760.00
2023-01-26T08:07:17.441Z,95757.75
2023-01-26T08:09:46.857Z,95756.56
2023-01-26T08:12:16.246Z,95755.09
2023-01-26T08:14:47.436Z,95749.00
2023-01-26T08:17:17.761Z,95754.09
2023-01-26T08:19:47.835Z,95746.00
2023-01-26T08:22:17.390Z,95746.81
2023-01-26T08:24:46.776Z,95749.09
2023-01-26T08:27:16.236Z,95742.44
2023-01-26T08:29:47.067Z,95746.53
2023-01-26T08:32:16.570Z,95742.69
2023-01-26T08:34:48.363Z,95738.41
2023-01-26T08:37:17.839Z,95741.69
2023-01-26T08:39:47.187Z,95738.22
2023-01-26T08:42:16.960Z,95741.69
2023-01-26T08:44:47.817Z,95741.69
2023-01-26T08:47:17.241Z,95746.16
2023-01-26T08:49:46.686Z,95744.75
2023-01-26T08:52:16.691Z,95740.09
2023-01-26T08:54:46.206Z,95740.91
2023-01-26T08:57:15.610Z,95746.81
2023-01-26T08:59:45.063Z,95735.88
2023-01-26T09:02:15.987Z,95741.41
2023-01-26T09:04:45.497Z,95736.56
2023-01-26T09:07:15.021Z,95746.94
2023-01-26T09:09:44.909Z,95742.47
2023-01-26T09:12:14.310Z,95742.28
2023-01-26T09:14:43.678Z,95751.03
2023-01-26T09:17:13.035Z,95752.47
2023-01-26T09:19:44.998Z,95744.56
2023-01-26T09:22:14.518Z,95745.38
2023-01-26T09:24:44.193Z,95748.00
2023-01-26T09:27:13.560Z,95750.47
2023-01-26T09:29:43.036Z,95754.91
2023-01-26T09:32:12.518Z,95762.47
2023-01-26T09:34:45.779Z,95759.22
2023-01-26T09:37:16.185Z,95750.31
2023-01-26T09:39:45.827Z,95748.84
2023-01-26T09:42:39.195Z,95756.97
2023-01-26T09:45:28.422Z,95751.28
2023-01-26T09:48:25.196Z,95756.75
2023-01-26T09:51:07.655Z,95754.91
2023-01-26T09:53:47.917Z,95748.00
2023-01-26T09:56:21.171Z,95746.63
2023-01-26T09:58:57.481Z,95744.81
2023-01-26T10:01:38.387Z,95737.88
2023-01-26T10:04:21.490Z,95733.63
2023-01-26T10:06:54.832Z,95741.34
2023-01-26T10:09:49.456Z,95735.44
2023-01-26T10:12:25.921Z,95736.06
2023-01-26T10:15:02.786Z,95743.16
2023-01-26T10:17:36.810Z,95735.06
2023-01-26T10:20:19.528Z,95734.84
2023-01-26T10:22:54.380Z,95735.66
2023-01-26T10:25:35.330Z,95732.00
2023-01-26T10:28:15.349Z,95729.56
2023-01-26T10:30:48.334Z,95735.47
2023-01-26T10:33:25.833Z,95744.56
2023-01-26T10:35:56.057Z,95735.25
2023-01-26T10:38:41.807Z,95735.44
2023-01-26T10:41:28.286Z,95728.97
2023-01-26T10:44:00.810Z,95732.59
2023-01-26T10:46:35.272Z,95719.59
2023-01-26T10:49:17.119Z,95719.59
2023-01-26T10:52:07.321Z,95719.97
2023-01-26T10:54:39.544Z,95718.84
2023-01-26T10:57:28.544Z,95715.84
2023-01-26T11:00:00.268Z,95711.31
2023-01-26T11:02:32.403Z,95717.09
2023-01-26T11:05:24.380Z,95715.41
2023-01-26T11:08:00.205Z,95712.75
2023-01-26T11:10:36.171Z,95710.13
2023-01-26T11:13:19.954Z,95713.56
2023-01-26T11:15:53.416Z,95708.28
2023-01-26T11:18:42.432Z,95701.00
2023-01-26T11:21:17.322Z,95700.19
2023-01-26T11:24:06.091Z,95708.91
2023-01-26T11:27:29.906Z,95702.81
2023-01-26T11:30:28.296Z,95708.34
2023-01-26T11:33:07.736Z,95703.06
2023-01-26T11:35:52.576Z,95711.25
2023-01-26T11:38:37.325Z,95708.59
2023-01-26T11:41:29.129Z,95707.78
2023-01-26T11:44:55.268Z,95707.16
2023-01-26T11:47:46.354Z,95703.25
2023-01-26T11:50:36.849Z,95717.47
2023-01-26T11:53:32.853Z,95699.19
2023-01-26T11:56:25.716Z,95699.00
2023-01-26T11:59:02.719Z,95694.53
2023-01-26T12:01:42.694Z,95697.34
2023-01-26T12:04:22.271Z,95691.88
2023-01-26T12:06:59.185Z,95688.06
2023-01-26T12:09:38.558Z,95684.22
2023-01-26T12:12:15.386Z,95682.81
2023-01-26T12:14:54.325Z,95687.13
2023-01-26T12:17:43.329Z,95684.50
2023-01-26T12:20:37.483Z,95678.81
2023-01-26T12:23:18.498Z,95669.06
2023-01-26T12:25:55.643Z,95668.00
2023-01-26T12:28:32.782Z,95669.19
2023-01-26T12:31:14.218Z,95669.56
2023-01-26T12:33:45.915Z,95663.47
2023-01-26T12:36:29.240Z,95665.94
2023-01-26T12:39:14.938Z,95661.28
2023-01-26T12:42:18.782Z,95655.81
2023-01-26T12:44:55.353Z,95654.63
2023-01-26T12:47:33.044Z,95661.13
2023-01-26T12:50:12.643Z,95655.88
2023-01-26T12:52:48.696Z,95657.47
2023-01-26T12:55:25.167Z,95660.41
2023-01-26T12:58:00.140Z,95655.50
2023-01-26T13:00:33.805Z,95654.81
2023-01-26T13:03:15.266Z,95655.25
2023-01-26T13:06:03.448Z,95650.16
2023-01-26T13:08:53.907Z,95646.88
2023-01-26T13:11:46.470Z,95649.53
2023-01-26T13:14:38.938Z,95651.78
2023-01-26T13:17:59.836Z,95648.31
2023-01-26T13:20:51.000Z,95645.88
2023-01-26T13:23:45.489Z,95650.72
2023-01-26T13:26:47.321Z,95649.09
2023-01-26T13:29:36.131Z,95643.81
2023-01-26T13:33:06.444Z,95636.28
2023-01-26T13:35:38.009Z,95639.91
2023-01-26T13:38:21.321Z,95648.41
2023-01-26T13:40:52.308Z,95641.88
2023-01-26T13:43:33.768Z,95647.16
2023-01-26T13:46:15.362Z,95647.97
2023-01-26T13:48:49.206Z,95644.94
2023-01-26T13:51:23.850Z,95653.31
2023-01-26T13:54:05.697Z,95652.31
2023-01-26T13:56:39.844Z,95639.72
2023-01-26T14:00:49.951Z,95644.19
2023-01-26T14:03:23.134Z,95635.84
2023-01-26T14:05:57.827Z,95641.31
2023-01-26T14:08:27.628Z,95646.97
2023-01-26T14:10:57.526Z,95644.13
2023-01-26T14:13:37.685Z,95647.16
2023-01-26T14:16:23.612Z,95649.78
2023-01-26T14:19:05.735Z,95641.69
2023-01-26T14:21:46.643Z,95647.16
2023-01-26T14:24:16.534Z,95646.72
2023-01-26T14:26:46.423Z,95645.91
2023-01-26T14:29:24.426Z,95650.59
2023-01-26T14:31:57.959Z,95642.03
2023-01-26T14:34:30.849Z,95648.97
2023-01-26T14:37:14.517Z,95647.94
2023-01-26T14:39:48.056Z,95647.50
2023-01-26T14:42:21.413Z,95650.16
2023-01-26T14:44:52.182Z,95653.16
2023-01-26T14:47:26.754Z,95650.72
2023-01-26T14:50:30.724Z,95650.28
2023-01-26T14:53:01.497Z,95642.75
2023-01-26T14:55:36.143Z,95648.22
2023-01-26T14:58:19.988Z,95650.84
2023-01-26T15:00:52.160Z,95657.13
2023-01-26T15:03:30.930Z,95659.31
2023-01-26T15:06:23.810Z,95657.31
2023-01-26T15:09:04.101Z,95651.22
2023-01-26T15:11:57.649Z,95645.94
2023-01-26T15:14:36.875Z,95643.13
2023-01-26T15:17:07.758Z,95647.00
2023-01-26T15:19:45.968Z,95637.09
2023-01-26T15:22:24.265Z,95636.84
2023-01-26T15:25:20.010Z,95636.41
2023-01-26T15:27:57.457Z,95648.16
2023-01-26T15:30:32.860Z,95641.66
2023-01-26T15:33:04.698Z,95646.72
2023-01-26T15:35:35.952Z,95654.22
2023-01-26T15:38:10.837Z,95660.31
2023-01-26T15:40:41.266Z,95663.94
2023-01-26T15:43:15.897Z,95673.69
2023-01-26T15:45:53.553Z,95667.41
2023-01-26T15:48:26.825Z,95664.56
2023-01-26T15:50:56.195Z,95674.69
2023-01-26T15:53:27.076Z,95668.59
2023-01-26T15:55:58.500Z,95668.59
2023-01-26T15:58:28.759Z,95668.78
2023-01-26T16:00:58.840Z,95672.22
2023-01-26T16:03:29.550Z,95672.41
2023-01-26T16:05:59.327Z,95674.06
2023-01-26T16:08:28.794Z,95673.22
2023-01-26T16:10:59.662Z,95671.41
2023-01-26T16:13:29.109Z,95674.88
2023-01-26T16:16:01.726Z,95674.06
2023-01-26T16:18:32.698Z,95675.88
2023-01-26T16:21:02.298Z,95669.78
2023-01-26T16:23:31.944Z,95674.25
2023-01-26T16:26:01.387Z,95672.22
2023-01-26T16:28:30.760Z,95671.41
2023-01-26T16:31:02.528Z,95669.59
2023-01-26T16:33:33.428Z,95676.94
2023-01-26T16:36:02.823Z,95670.22
2023-01-26T16:38:32.294Z,95677.13
2023-01-26T16:41:01.862Z,95685.03
2023-01-26T16:43:32.537Z,95674.53
2023-01-26T16:46:01.935Z,95673.31
2023-01-26T16:48:34.864Z,95675.31
2023-01-26T16:51:20.704Z,95672.22
2023-01-26T16:53:50.980Z,95666.94
2023-01-26T16:56:21.666Z,95668.59
2023-01-26T16:58:51.199Z,95667.78
2023-01-26T17:01:24.189Z,95674.88
2023-01-26T17:03:55.927Z,95673.03
2023-01-26T17:06:25.848Z,95672.41
2023-01-26T17:08:55.570Z,95667.13
2023-01-26T17:11:28.412Z,95668.16
2023-01-26T17:13:59.359Z,95675.50
2023-01-26T17:16:32.020Z,95666.94
2023-01-26T17:19:02.995Z,95671.59
2023-01-26T17:21:32.649Z,95673.22
2023-01-26T17:24:02.045Z,95675.69
2023-01-26T17:26:31.385Z,95667.59
2023-01-26T17:29:00.916Z,95670.22
2023-01-26T17:31:31.676Z,95672.84
2023-01-26T17:34:02.675Z,95681.59
2023-01-26T17:36:32.096Z,95686.22
2023-01-26T17:39:01.538Z,95693.31
2023-01-26T17:41:30.924Z,95686.59
2023-01-26T17:44:00.324Z,95685.78
2023-01-26T17:46:29.904Z,95679.50
2023-01-26T17:48:59.298Z,95686.41
2023-01-26T17:51:30.082Z,95680.97
2023-01-26T17:53:59.477Z,95673.22
2023-01-26T17:56:30.806Z,95676.69
2023-01-26T17:59:00.363Z,95673.22
2023-01-26T18:01:29.810Z,95676.31
2023-01-26T18:03:59.425Z,95673.50
2023-01-26T18:06:31.198Z,95672.47
2023-01-26T18:09:00.690Z,95670.84
2023-01-26T18:11:30.214Z,95673.50
2023-01-26T18:13:59.728Z,95664.56
2023-01-26T18:16:29.438Z,95668.06
2023-01-26T18:19:01.028Z,95672.06
2023-01-26T18:21:34.436Z,95680.41
2023-01-26T18:24:07.066Z,95677.13
2023-01-26T18:26:39.121Z,95667.78
2023-01-26T18:29:08.771Z,95671.41
2023-01-26T18:31:41.569Z,95662.50
2023-01-26T18:34:12.983Z,95673.69
2023-01-26T18:36:43.843Z,95674.69
2023-01-26T18:39:16.780Z,95674.69
2023-01-26T18:41:46.217Z,95675.69
2023-01-26T18:44:15.672Z,95671.41
2023-01-26T18:46:45.096Z,95672.22
2023-01-26T18:49:14.522Z,95680.97
2023-01-26T18:51:48.045Z,95674.69
2023-01-26T18:54:20.057Z,95671.03
2023-01-26T18:56:49.491Z,95677.13
2023-01-26T18:59:18.908Z,95678.75
2023-01-26T19:01:48.737Z,95675.13
2023-01-26T19:04:18.527Z,95676.72
2023-01-26T19:06:49.357Z,95672.47
2023-01-26T19:09:22.533Z,95676.13
2023-01-26T19:11:52.318Z,95665.56
2023-01-26T19:14:22.567Z,95662.75
2023-01-26T19:16:52.146Z,95659.47
2023-01-26T19:19:21.838Z,95664.13
2023-01-26T19:21:52.699Z,95666.75
2023-01-26T19:24:22.820Z,95666.75
2023-01-26T19:26:52.344Z,95671.41
2023-01-26T19:29:21.831Z,95669.22
2023-01-26T19:31:51.410Z,95669.84
2023-01-26T19:34:20.788Z,95670.03
2023-01-26T19:36:50.247Z,95666.75
2023-01-26T19:39:20.984Z,95666.94
2023-01-26T19:41:50.576Z,95674.88
2023-01-26T19:44:20.636Z,95674.88
2023-01-26T19:46:52.971Z,95671.22
2023-01-26T19:49:22.827Z,95678.13
2023-01-26T19:51:53.218Z,95668.59
2023-01-26T19:54:24.029Z,95674.06
2023-01-26T19:56:53.432Z,95676.69
2023-01-26T19:59:22.830Z,95673.03
2023-01-26T20:01:52.166Z,95669.84
2023-01-26T20:04:21.611Z,95664.75
2023-01-26T20:06:51.061Z,95676.88
2023-01-26T20:09:20.487Z,95668.72
2023-01-26T20:11:52.570Z,95675.81
2023-01-26T20:14:22.198Z,95666.25
2023-01-26T20:16:51.635Z,95669.25
2023-01-26T20:19:21.166Z,95678.56
2023-01-26T20:21:50.921Z,95676.72
2023-01-26T20:24:20.410Z,95674.91
2023-01-26T20:26:51.477Z,95666.19
2023-01-26T20:29:21.672Z,95670.81
2023-01-26T20:31:51.973Z,95674.91
2023-01-26T20:34:22.027Z,95672.09
2023-01-26T20:36:54.582Z,95662.16
2023-01-26T20:39:25.181Z,95660.34
2023-01-26T20:41:58.045Z,95660.34
2023-01-26T20:44:27.424Z,95673.53
2023-01-26T20:46:57.139Z,95661.16
2023-01-26T20:49:26.613Z,95653.25
2023-01-26T20:51:55.989Z,95656.72
2023-01-26T20:54:25.473Z,95654.88
2023-01-26T20:56:55.000Z,95653.88
2023-01-26T20:59:26.741Z,95651.25
2023-01-26T21:01:56.182Z,95655.72
2023-01-26T21:04:26.804Z,95650.50
2023-01-26T21:06:56.212Z,95656.97
2023-01-26T21:09:25.673Z,95657.16
2023-01-26T21:11:55.029Z,95652.06
2023-01-26T21:14:25.723Z,95652.25
2023-01-26T21:16:55.641Z,95646.16
2023-01-26T21:19:25.130Z,95645.34
2023-01-26T21:21:54.634Z,95641.91
2023-01-26T21:24:24.092Z,95641.53
2023-01-26T21:26:53.499Z,95647.78
2023-01-26T21:29:23.360Z,95643.53
2023-01-26T21:31:54.088Z,95641.72
2023-01-26T21:34:23.537Z,95645.97
2023-01-26T21:36:52.907Z,95650.81
2023-01-26T21:39:22.362Z,95648.72
2023-01-26T21:41:57.601Z,95647.91
2023-01-26T21:44:29.612Z,95643.84
2023-01-26T21:47:03.940Z,95646.66
2023-01-26T21:49:33.392Z,95643.84
2023-01-26T21:52:20.091Z,95642.00
2023-01-26T21:54:49.528Z,95637.75
2023-01-26T21:57:36.632Z,95638.56
2023-01-26T22:00:08.048Z,95634.91
2023-01-26T22:02:38.784Z,95634.28
2023-01-26T22:05:09.822Z,95634.09
2023-01-26T22:07:39.399Z,95632.66
2023-01-26T22:10:12.445Z,95631.88
2023-01-26T22:12:42.351Z,95634.69
2023-01-26T22:15:13.766Z,95640.78
2023-01-26T22:17:44.631Z,95638.97
2023-01-26T22:20:14.449Z,95642.41
2023-01-26T22:22:44.075Z,95632.47
2023-01-26T22:25:13.485Z,95633.47
2023-01-26T22:27:43.024Z,95640.97
2023-01-26T22:30:14.033Z,95633.06
2023-01-26T22:32:45.558Z,95631.25
2023-01-26T22:35:15.767Z,95632.88
2023-01-26T22:37:45.531Z,95625.38
2023-01-26T22:40:15.617Z,95618.91
2023-01-26T22:42:44.994Z,95615.84
2023-01-26T22:45:15.335Z,95628.59
2023-01-26T22:47:46.324Z,95632.25
2023-01-26T22:50:16.493Z,95622.53
2023-01-26T22:52:45.894Z,95629.78
2023-01-26T22:55:15.608Z,95628.97
2023-01-26T22:57:45.106Z,95631.63
2023-01-26T23:00:15.879Z,95623.53
2023-01-26T23:02:46.653Z,95621.06
2023-01-26T23:05:16.227Z,95620.06
2023-01-26T23:07:45.893Z,95622.53
2023-01-26T23:10:15.963Z,95618.25
2023-01-26T23:12:45.293Z,95612.59
2023-01-26T23:15:14.797Z,95619.69
2023-01-26T23:17:44.202Z,95616.25
2023-01-26T23:20:15.306Z,95620.69
2023-01-26T23:22:44.645Z,95618.69
2023-01-26T23:25:31.898Z,95614.19
2023-01-26T23:28:04.298Z,95621.09
2023-01-26T23:30:34.086Z,95614.84
2023-01-26T23:33:03.546Z,95604.28
2023-01-26T23:35:34.328Z,95608.75
2023-01-26T23:38:04.074Z,95611.38
2023-01-26T23:40:34.557Z,95614.00
2023-01-26T23:43:16.164Z,95606.94
2023-01-26T23:45:48.639Z,95605.91
2023-01-26T23:48:18.939Z,95606.53
2023-01-26T23:50:49.734Z,95606.53
2023-01-26T23:53:19.072Z,95598.00
2023-01-26T23:55:48.461Z,95602.28
2023-01-26T23:58:17.838Z,95587.72
